Evanston, Iowa
Current Conditions -  °F | °C
As of 2:55 AM on Sunday 23 Nov 2014 (Local Time) from KEBS Reporting Station
Haze Haze  
Wind Chill: 52°   Ceiling: 600
Heat Index: 52°   Visibility: 5mi
Dew Point: 52°   Wind: 12mph
Humidity: 100%   Direction: 180°S
Pressure: 29.53"   Gusts: 17mph
Location:  42.4323°N, 94.0232°W
Report Text: KEBS 230855Z AUTO 18010G15KT 5SM BR OVC006 11/11 A2953 RMK AO2
Loading
Personal Weather Stations






























Interactive Weather Map New forecast layout! Learn more

10-Day Weather Forecast

Advertisements
Track Severe Weather on mobile